Time;durP1;ratioP1;P1;durP2;ratioP2;P2;SDS_P1;SDS_P2;PMS_P1;PMS_P2;Temp;Humidity;BMP_temperature;BMP_pressure;BME280_temperature;BME280_humidity;BME280_pressure;Samples;Min_cycle;Max_cycle;Signal;HPM_P1;HPM_P2
2024/03/26 00:00:21;;;;;;;1999.90;999.90;;;12.90;99.90;;;;;;5049092;28;20405;-75
2024/03/26 00:02:47;;;;;;;1999.90;999.90;;;12.90;99.90;;;;;;5031960;28;20037;-75
2024/03/26 00:05:14;;;;;;;1999.90;999.90;;;13.00;99.90;;;;;;5031923;28;20032;-76
2024/03/26 00:07:40;;;;;;;1999.90;999.90;;;12.90;99.90;;;;;;5051633;28;20040;-76
2024/03/26 00:10:06;;;;;;;1999.90;999.90;;;13.00;99.90;;;;;;5051836;28;20032;-75
2024/03/26 00:12:32;;;;;;;1999.90;999.90;;;13.00;99.90;;;;;;5051329;28;20033;-75
2024/03/26 00:14:58;;;;;;;1999.90;999.90;;;13.00;99.90;;;;;;5051907;28;20354;-75
2024/03/26 00:17:24;;;;;;;1999.90;999.90;;;13.00;99.90;;;;;;5050898;28;20033;-75
2024/03/26 00:19:51;;;;;;;1999.90;999.90;;;13.10;99.90;;;;;;5052436;28;20048;-76
2024/03/26 00:22:17;;;;;;;1999.90;999.90;;;13.00;99.90;;;;;;5054742;28;20498;-75
2024/03/26 00:24:43;;;;;;;1999.90;999.90;;;13.10;99.90;;;;;;5055428;28;20048;-75
2024/03/26 00:27:09;;;;;;;1999.90;999.90;;;13.10;99.90;;;;;;5054990;28;20040;-76
2024/03/26 00:29:35;;;;;;;1999.90;999.90;;;13.10;99.90;;;;;;5055236;28;20032;-75
2024/03/26 00:32:01;;;;;;;1999.90;999.90;;;13.10;99.90;;;;;;5054398;28;20037;-76
2024/03/26 00:34:27;;;;;;;1999.90;999.90;;;13.00;99.90;;;;;;5055540;28;20028;-75
2024/03/26 00:36:53;;;;;;;1999.90;999.90;;;13.00;99.90;;;;;;5054557;28;20382;-75
2024/03/26 00:39:19;;;;;;;1999.90;999.90;;;13.00;99.90;;;;;;5051843;28;20045;-75
2024/03/26 00:41:46;;;;;;;1999.90;999.90;;;13.10;99.90;;;;;;5034936;28;20393;-75
2024/03/26 00:44:12;;;;;;;1999.90;999.90;;;13.20;99.90;;;;;;5035202;28;20033;-75
2024/03/26 00:46:38;;;;;;;1999.90;999.90;;;13.10;99.90;;;;;;5046233;28;20037;-76
2024/03/26 00:49:04;;;;;;;1999.90;999.90;;;13.10;99.90;;;;;;5054944;28;20489;-76
2024/03/26 00:51:30;;;;;;;1999.90;999.90;;;13.10;99.90;;;;;;5054102;28;20044;-75
2024/03/26 00:53:56;;;;;;;1999.90;999.90;;;13.10;99.90;;;;;;5054875;28;20385;-76
2024/03/26 00:56:23;;;;;;;1999.90;999.90;;;13.00;99.90;;;;;;5054528;28;20044;-75
2024/03/26 00:58:49;;;;;;;1999.90;999.90;;;13.10;99.90;;;;;;5055351;28;20057;-76
2024/03/26 01:01:15;;;;;;;1999.90;999.90;;;13.10;99.90;;;;;;5044743;28;20402;-75
2024/03/26 01:03:41;;;;;;;1999.90;999.90;;;13.10;99.90;;;;;;5034754;28;20041;-75
2024/03/26 01:06:07;;;;;;;1999.90;999.90;;;13.00;99.90;;;;;;5041867;28;20033;-75
2024/03/26 01:08:33;;;;;;;1999.90;999.90;;;13.00;99.90;;;;;;5054798;28;20036;-75
2024/03/26 01:10:59;;;;;;;1999.90;999.90;;;13.00;99.90;;;;;;5054147;28;20040;-75
2024/03/26 01:13:25;;;;;;;1999.90;999.90;;;13.00;99.90;;;;;;5054574;28;20048;-75
2024/03/26 01:15:51;;;;;;;1999.90;999.90;;;13.00;99.90;;;;;;5053508;28;20036;-76
2024/03/26 01:18:17;;;;;;;1999.90;999.90;;;13.00;99.90;;;;;;5054613;28;20505;-76
2024/03/26 01:20:44;;;;;;;1999.90;999.90;;;12.90;99.90;;;;;;5053625;28;20036;-75
2024/03/26 01:23:10;;;;;;;1999.90;999.90;;;12.90;99.90;;;;;;5054349;28;20052;-75
2024/03/26 01:25:36;;;;;;;1999.90;999.90;;;12.90;99.90;;;;;;5053874;28;20373;-75
2024/03/26 01:28:03;;;;;;;1999.90;999.90;;;13.00;99.90;;;;;;5054174;28;20029;-75
2024/03/26 01:30:29;;;;;;;1999.90;999.90;;;13.00;99.90;;;;;;5053313;28;20052;-75
2024/03/26 01:32:55;;;;;;;1999.90;999.90;;;13.10;99.90;;;;;;5068147;28;20041;-75
2024/03/26 01:35:23;;;;;;;1999.90;999.90;;;13.00;99.90;;;;;;5053343;28;20048;-75
2024/03/26 01:37:50;;;;;;;1999.90;999.90;;;13.00;99.90;;;;;;5054333;28;20398;-75
2024/03/26 01:40:16;;;;;;;1999.90;999.90;;;13.00;99.90;;;;;;5042731;28;20022;-75
2024/03/26 01:42:42;;;;;;;1999.90;999.90;;;13.00;99.90;;;;;;5034164;28;20052;-76
2024/03/26 01:45:08;;;;;;;1999.90;999.90;;;13.00;99.90;;;;;;5033606;28;20033;-74
2024/03/26 01:47:36;;;;;;;1999.90;999.90;;;13.00;99.90;;;;;;5053478;28;20036;-75
2024/03/26 01:50:03;;;;;;;1999.90;999.90;;;13.00;99.90;;;;;;5068620;28;20037;-75
2024/03/26 01:52:29;;;;;;;1999.90;999.90;;;13.10;99.90;;;;;;5053392;28;20033;-74
2024/03/26 01:54:55;;;;;;;1999.90;999.90;;;13.10;99.90;;;;;;5053733;28;20481;-75
2024/03/26 01:57:22;;;;;;;1999.90;999.90;;;13.10;99.90;;;;;;5068387;28;20413;-76
2024/03/26 01:59:53;;;;;;;1999.90;999.90;;;13.10;99.90;;;;;;5053732;28;20049;-76
2024/03/26 02:02:20;;;;;;;1999.90;999.90;;;13.10;99.90;;;;;;5052731;28;20379;-76
2024/03/26 02:04:46;;;;;;;1999.90;999.90;;;13.10;99.90;;;;;;5051643;28;20048;-76
2024/03/26 02:07:13;;;;;;;1999.90;999.90;;;13.10;99.90;;;;;;5052913;28;20045;-76
2024/03/26 02:09:40;;;;;;;1999.90;999.90;;;13.10;99.90;;;;;;5053621;28;20025;-75
2024/03/26 02:12:06;;;;;;;1999.90;999.90;;;13.20;99.90;;;;;;5051752;28;20040;-76
2024/03/26 02:14:32;;;;;;;1999.90;999.90;;;13.00;99.90;;;;;;5053350;28;20021;-76
2024/03/26 02:16:58;;;;;;;1999.90;999.90;;;13.00;99.90;;;;;;5052409;28;20041;-75
2024/03/26 02:19:24;;;;;;;1999.90;999.90;;;13.00;99.90;;;;;;5053010;28;20378;-75
2024/03/26 02:21:51;;;;;;;1999.90;999.90;;;12.90;99.90;;;;;;5052691;28;20055;-76
2024/03/26 02:24:17;;;;;;;1999.90;999.90;;;12.80;99.90;;;;;;5053388;28;20037;-76
2024/03/26 02:26:43;;;;;;;1999.90;999.90;;;12.70;99.90;;;;;;5052739;28;20051;-75
2024/03/26 02:29:09;;;;;;;1999.90;999.90;;;12.80;99.90;;;;;;5053055;28;20033;-75
2024/03/26 02:31:35;;;;;;;1999.90;999.90;;;12.80;99.90;;;;;;5052123;28;20048;-75
2024/03/26 02:34:01;;;;;;;1999.90;999.90;;;12.80;99.90;;;;;;5052680;28;20043;-75
2024/03/26 02:36:27;;;;;;;1999.90;999.90;;;12.70;99.90;;;;;;5052637;28;20029;-75
2024/03/26 02:38:54;;;;;;;1999.90;999.90;;;12.80;99.90;;;;;;5052755;28;20048;-75
2024/03/26 02:41:20;;;;;;;1999.90;999.90;;;12.80;99.90;;;;;;5032701;28;20066;-75
2024/03/26 02:43:49;;;;;;;1999.90;999.90;;;12.70;99.90;;;;;;5031795;28;20052;-75
2024/03/26 02:46:15;;;;;;;1999.90;999.90;;;12.80;99.90;;;;;;5056501;28;20037;-74
2024/03/26 02:48:42;;;;;;;1999.90;999.90;;;12.80;99.90;;;;;;5052589;28;20121;-75
2024/03/26 02:51:08;;;;;;;1999.90;999.90;;;12.80;99.90;;;;;;5052288;28;20493;-75
2024/03/26 02:53:34;;;;;;;1999.90;999.90;;;12.90;99.90;;;;;;5052621;28;20499;-76
2024/03/26 02:56:00;;;;;;;1999.90;999.90;;;12.80;99.90;;;;;;5052145;28;20025;-75
2024/03/26 02:58:26;;;;;;;1999.90;999.90;;;12.70;99.90;;;;;;5052633;28;20037;-75
2024/03/26 03:00:52;;;;;;;1999.90;999.90;;;12.70;99.90;;;;;;5050920;28;20040;-75
2024/03/26 03:03:18;;;;;;;1999.90;999.90;;;12.70;99.90;;;;;;5030293;28;20029;-75
2024/03/26 03:05:45;;;;;;;1999.90;999.90;;;12.60;99.90;;;;;;5029526;28;20037;-76
2024/03/26 03:08:11;;;;;;;1999.90;999.90;;;12.60;99.90;;;;;;5031003;28;20038;-76
2024/03/26 03:10:37;;;;;;;1999.90;999.90;;;12.50;99.90;;;;;;5034357;28;20024;-75
2024/03/26 03:13:03;;;;;;;1999.90;999.90;;;12.50;99.90;;;;;;5049672;28;20021;-76
2024/03/26 03:15:29;;;;;;;1999.90;999.90;;;12.40;99.90;;;;;;5032433;28;20510;-75
2024/03/26 03:17:55;;;;;;;1999.90;999.90;;;12.40;99.90;;;;;;5050432;28;20037;-76
2024/03/26 03:20:21;;;;;;;1999.90;999.90;;;12.40;99.90;;;;;;5050475;28;20048;-75
2024/03/26 03:22:48;;;;;;;1999.90;999.90;;;12.50;99.90;;;;;;5039177;28;20037;-75
2024/03/26 03:25:14;;;;;;;1999.90;999.90;;;12.50;99.90;;;;;;5030523;28;20398;-75
2024/03/26 03:27:40;;;;;;;1999.90;999.90;;;12.50;99.90;;;;;;5050890;28;20037;-75
2024/03/26 03:30:07;;;;;;;1999.90;999.90;;;12.50;99.90;;;;;;5065582;28;20485;-76
2024/03/26 03:32:33;;;;;;;1999.90;999.90;;;12.50;99.90;;;;;;5050246;28;20504;-76
2024/03/26 03:34:59;;;;;;;1999.90;999.90;;;12.50;99.90;;;;;;5050932;28;20044;-76
2024/03/26 03:37:25;;;;;;;1999.90;999.90;;;12.50;99.90;;;;;;5039145;28;20032;-76
2024/03/26 03:39:51;;;;;;;1999.90;999.90;;;12.50;99.90;;;;;;5032201;28;20427;-75
2024/03/26 03:42:18;;;;;;;1999.90;999.90;;;12.50;99.90;;;;;;5031908;28;20029;-75
2024/03/26 03:44:45;;;;;;;1999.90;999.90;;;12.40;99.90;;;;;;5032717;28;20397;-75
2024/03/26 03:47:11;;;;;;;1999.90;999.90;;;12.50;99.90;;;;;;5047922;28;20028;-75
2024/03/26 03:49:37;;;;;;;1999.90;999.90;;;12.50;99.90;;;;;;5052202;28;20040;-75
2024/03/26 03:52:04;;;;;;;1999.90;999.90;;;12.50;99.90;;;;;;5051736;28;20413;-75
2024/03/26 03:54:30;;;;;;;1999.90;999.90;;;12.50;99.90;;;;;;5052265;28;20378;-75
2024/03/26 03:56:56;;;;;;;1999.90;999.90;;;12.50;99.90;;;;;;5055443;28;20029;-75
2024/03/26 03:59:22;;;;;;;1999.90;999.90;;;12.40;99.90;;;;;;5055932;28;20045;-75
2024/03/26 04:01:48;;;;;;;1999.90;999.90;;;12.40;99.90;;;;;;5054507;28;20041;-72
2024/03/26 04:04:14;;;;;;;1999.90;999.90;;;12.40;99.90;;;;;;5055762;28;20037;-75
2024/03/26 04:06:41;;;;;;;1999.90;999.90;;;12.40;99.90;;;;;;5055442;28;20044;-74
2024/03/26 04:09:07;;;;;;;1999.90;999.90;;;12.40;99.90;;;;;;5055714;28;20401;-75
2024/03/26 04:11:34;;;;;;;1999.90;999.90;;;12.40;99.90;;;;;;5055116;28;20049;-74
2024/03/26 04:14:00;;;;;;;1999.90;999.90;;;12.40;99.90;;;;;;5055718;28;20029;-74
2024/03/26 04:16:27;;;;;;;1999.90;999.90;;;12.40;99.90;;;;;;5054553;28;20056;-74
2024/03/26 04:18:53;;;;;;;1999.90;999.90;;;12.40;99.90;;;;;;5055521;28;20036;-74
2024/03/26 04:21:19;;;;;;;1999.90;999.90;;;12.30;99.90;;;;;;5055076;28;20504;-74
2024/03/26 04:23:46;;;;;;;1999.90;999.90;;;12.30;99.90;;;;;;5055562;28;20385;-75
2024/03/26 04:26:13;;;;;;;1999.90;999.90;;;12.30;99.90;;;;;;5055214;28;20037;-74
2024/03/26 04:28:39;;;;;;;1999.90;999.90;;;12.30;99.90;;;;;;5055076;28;20024;-74
2024/03/26 04:31:05;;;;;;;1999.90;999.90;;;12.30;99.90;;;;;;5054550;28;20040;-75
2024/03/26 04:33:32;;;;;;;1999.90;999.90;;;12.40;99.90;;;;;;5055514;28;20033;-74
2024/03/26 04:35:58;;;;;;;1999.90;999.90;;;12.30;99.90;;;;;;5054860;28;20367;-75
2024/03/26 04:38:24;;;;;;;1999.90;999.90;;;12.30;99.90;;;;;;5055052;28;20033;-74
2024/03/26 04:40:51;;;;;;;1999.90;999.90;;;12.20;99.90;;;;;;5039331;28;20414;-74
2024/03/26 04:43:17;;;;;;;1999.90;999.90;;;12.20;99.90;;;;;;5034801;28;20025;-74
2024/03/26 04:45:43;;;;;;;1999.90;999.90;;;12.10;99.90;;;;;;5038085;28;20041;-74
2024/03/26 04:48:09;;;;;;;1999.90;999.90;;;12.10;99.90;;;;;;5055009;28;20492;-74
2024/03/26 04:50:35;;;;;;;1999.90;999.90;;;12.20;99.90;;;;;;5054552;28;20032;-74
2024/03/26 04:53:01;;;;;;;1999.90;999.90;;;12.10;99.90;;;;;;5054895;28;20052;-74
2024/03/26 04:55:27;;;;;;;1999.90;999.90;;;12.00;99.90;;;;;;5054808;28;20441;-74
2024/03/26 04:57:53;;;;;;;1999.90;999.90;;;12.00;99.90;;;;;;5054465;28;20032;-74
2024/03/26 05:00:20;;;;;;;1999.90;999.90;;;12.00;99.90;;;;;;5053782;28;20041;-74
2024/03/26 05:02:46;;;;;;;1999.90;999.90;;;11.90;99.90;;;;;;5054723;28;20036;-75
2024/03/26 05:05:12;;;;;;;1999.90;999.90;;;11.80;99.90;;;;;;5054618;28;20504;-74
2024/03/26 05:07:39;;;;;;;1999.90;999.90;;;11.70;99.90;;;;;;5054536;28;20028;-74
2024/03/26 05:10:07;;;;;;;1999.90;999.90;;;11.60;99.90;;;;;;5054651;28;20017;-75
2024/03/26 05:12:34;;;;;;;1999.90;999.90;;;11.50;99.90;;;;;;5054223;28;20534;-74
2024/03/26 05:15:00;;;;;;;1999.90;999.90;;;11.50;99.90;;;;;;5054627;28;20048;-74
2024/03/26 05:17:26;;;;;;;1999.90;999.90;;;11.60;99.90;;;;;;5053616;28;20055;-74
2024/03/26 05:19:52;;;;;;;53.88;51.22;;;11.40;99.90;;;;;;5054487;28;20041;-74
2024/03/26 05:22:18;;;;;;;91.25;86.68;;;11.30;99.90;;;;;;5053900;28;20520;-74
2024/03/26 05:24:44;;;;;;;56.00;53.22;;;11.10;99.90;;;;;;5054314;28;20040;-74
2024/03/26 05:27:10;;;;;;;65.90;62.65;;;11.00;99.90;;;;;;5053539;28;20033;-74
2024/03/26 05:29:37;;;;;;;76.30;72.47;;;11.00;99.90;;;;;;5054359;28;20040;-74
2024/03/26 05:32:04;;;;;;;55.50;52.78;;;11.00;99.90;;;;;;5053178;28;20048;-74
2024/03/26 05:34:30;;;;;;;38.55;36.70;;;10.90;99.90;;;;;;5054780;28;20052;-74
2024/03/26 05:36:57;;;;;;;50.95;48.45;;;11.00;99.90;;;;;;5051192;28;20040;-74
2024/03/26 05:39:23;;;;;;;55.35;52.67;;;11.00;99.90;;;;;;5034111;28;20383;-74
2024/03/26 05:41:50;;;;;;;47.97;45.65;;;11.10;99.90;;;;;;5033807;28;20030;-72
2024/03/26 05:44:16;;;;;;;48.95;46.55;;;11.10;99.90;;;;;;5034101;28;20033;-74
2024/03/26 05:46:42;;;;;;;50.53;48.05;;;11.20;99.90;;;;;;5033534;28;20040;-74
2024/03/26 05:49:08;;;;;;;31.77;30.23;;;11.30;99.90;;;;;;5034083;28;20381;-74
2024/03/26 05:51:34;;;;;;;35.47;33.78;;;11.20;99.90;;;;;;5033926;28;20060;-74
2024/03/26 05:54:00;;;;;;;44.40;42.22;;;11.20;99.90;;;;;;5033803;28;20045;-74
2024/03/26 05:56:26;;;;;;;34.55;32.83;;;11.30;99.90;;;;;;5033486;28;20385;-74
2024/03/26 05:58:56;;;;;;;49.47;47.03;;;11.40;99.90;;;;;;5033720;28;20041;-74
2024/03/26 06:01:22;;;;;;;78.30;74.45;;;11.40;99.90;;;;;;5033366;28;20116;-74
2024/03/26 06:03:48;;;;;;;36.67;34.90;;;11.40;99.90;;;;;;5033733;28;20036;-74
2024/03/26 06:06:14;;;;;;;37.08;35.28;;;11.30;99.90;;;;;;5033611;28;20034;-74
2024/03/26 06:08:40;;;;;;;38.85;36.95;;;11.40;99.90;;;;;;5033811;28;20029;-74
2024/03/26 06:11:06;;;;;;;61.35;58.33;;;11.50;99.90;;;;;;5033148;28;20363;-73
2024/03/26 06:13:33;;;;;;;54.20;51.58;;;11.50;99.90;;;;;;5033482;28;20033;-74
2024/03/26 06:16:07;;;;;;;59.78;56.88;;;11.60;99.90;;;;;;5033119;28;20056;-74
2024/03/26 06:18:33;;;;;;;74.72;71.07;;;11.70;99.90;;;;;;5032611;28;20033;-74
2024/03/26 06:20:59;;;;;;;47.13;44.85;;;11.70;99.90;;;;;;5032020;28;20040;-74
2024/03/26 06:23:25;;;;;;;100.22;95.30;;;11.80;99.90;;;;;;5033449;28;20025;-74
2024/03/26 06:25:51;;;;;;;99.38;94.53;;;11.80;99.90;;;;;;5032954;28;20030;-74
2024/03/26 06:28:18;;;;;;;47.10;44.80;;;11.80;99.90;;;;;;5033262;28;20045;-74
2024/03/26 06:30:45;;;;;;;53.35;50.70;;;11.80;99.90;;;;;;5032536;28;20042;-74
2024/03/26 06:33:11;;;;;;;71.30;67.80;;;11.80;99.90;;;;;;5033256;28;20045;-73
2024/03/26 06:35:38;;;;;;;61.67;58.65;;;11.80;99.90;;;;;;5032674;28;20386;-74
2024/03/26 06:38:05;;;;;;;47.88;45.55;;;11.70;99.90;;;;;;5033037;28;20124;-74
2024/03/26 06:40:37;;;;;;;76.97;73.18;;;11.70;99.90;;;;;;5032787;28;20049;-73
2024/03/26 06:43:04;;;;;;;36.20;34.40;;;11.60;99.90;;;;;;5013072;28;20030;-73
2024/03/26 06:45:30;;;;;;;93.18;88.65;;;11.70;99.90;;;;;;5017380;28;20029;-74
2024/03/26 06:47:57;;;;;;;41.97;39.95;;;11.70;99.90;;;;;;5052822;28;20036;-73
2024/03/26 06:50:23;;;;;;;39.97;38.03;;;11.70;99.90;;;;;;5051364;28;20473;-73
2024/03/26 06:52:49;;;;;;;101.63;96.68;;;11.70;99.90;;;;;;5052713;28;20040;-74
2024/03/26 06:55:19;;;;;;;52.15;49.60;;;11.70;99.90;;;;;;5051732;28;20029;-73
2024/03/26 06:57:45;;;;;;;62.88;59.83;;;11.70;99.90;;;;;;5052760;28;20021;-73
2024/03/26 07:00:12;;;;;;;89.93;85.43;;;11.70;99.90;;;;;;5051958;28;20041;-73
2024/03/26 07:02:38;;;;;;;92.63;87.93;;;11.70;99.90;;;;;;5032550;28;20037;-74
2024/03/26 07:05:05;;;;;;;97.05;92.15;;;11.70;99.90;;;;;;5032662;28;20030;-74
2024/03/26 07:07:32;;;;;;;37.58;35.67;;;11.70;99.90;;;;;;5032304;28;20437;-73
2024/03/26 07:09:58;;;;;;;68.20;64.85;;;11.70;99.90;;;;;;5032375;28;20382;-74
2024/03/26 07:12:25;;;;;;;75.38;71.57;;;11.70;99.90;;;;;;5050480;28;20040;-73
2024/03/26 07:14:51;;;;;;;63.60;60.50;;;11.70;99.90;;;;;;5052339;28;20035;-73
2024/03/26 07:17:17;;;;;;;34.58;32.85;;;11.70;99.90;;;;;;5051264;28;20040;-73
2024/03/26 07:19:43;;;;;;;66.40;63.10;;;11.70;99.90;;;;;;5052380;28;20041;-74
2024/03/26 07:22:10;;;;;;;75.63;71.93;;;11.80;99.90;;;;;;5051643;28;20060;-74
2024/03/26 07:24:36;;;;;;;126.55;120.32;;;11.80;99.90;;;;;;5051851;28;20029;-74
2024/03/26 07:27:02;;;;;;;48.05;45.58;;;11.80;99.90;;;;;;5051865;28;20045;-73
2024/03/26 07:29:28;;;;;;;114.43;108.80;;;11.80;99.90;;;;;;5051250;28;20029;-74
2024/03/26 07:31:55;;;;;;;47.92;45.53;;;11.80;99.90;;;;;;5051255;28;20119;-74
2024/03/26 07:34:22;;;;;;;70.72;67.25;;;11.80;99.90;;;;;;5052269;28;20036;-74
2024/03/26 07:36:48;;;;;;;37.47;35.58;;;11.80;99.90;;;;;;5066759;28;20512;-73
2024/03/26 07:39:19;;;;;;;170.80;162.30;;;11.70;99.90;;;;;;5049301;28;20033;-74
2024/03/26 07:41:46;;;;;;;79.15;75.25;;;11.80;99.90;;;;;;5031662;28;20374;-74
2024/03/26 07:44:13;;;;;;;50.05;47.55;;;11.80;99.90;;;;;;5032459;28;20616;-73
2024/03/26 07:46:41;;;;;;;89.53;85.10;;;11.70;99.90;;;;;;5043888;28;20044;-73
2024/03/26 07:49:08;;;;;;;48.42;46.00;;;11.70;99.90;;;;;;5052027;28;20049;-74
2024/03/26 07:51:34;;;;;;;53.20;50.60;;;11.80;99.90;;;;;;5051682;28;20051;-73
2024/03/26 07:54:00;;;;;;;78.90;75.05;;;11.90;99.90;;;;;;5052000;28;20025;-73
2024/03/26 07:56:26;;;;;;;65.40;62.20;;;11.80;99.90;;;;;;5066749;28;20036;-73
2024/03/26 07:58:52;;;;;;;72.50;68.85;;;11.60;99.90;;;;;;5051860;28;20032;-73
2024/03/26 08:01:18;;;;;;;88.28;83.65;;;11.60;99.90;;;;;;5051114;28;20036;-73
2024/03/26 08:03:45;;;;;;;63.25;60.10;;;11.60;99.90;;;;;;5052012;28;20029;-73
2024/03/26 08:06:11;;;;;;;65.80;62.53;;;11.60;99.90;;;;;;5051087;28;20032;-73
2024/03/26 08:08:37;;;;;;;60.88;57.90;;;11.70;99.90;;;;;;5051815;28;20033;-73
2024/03/26 08:11:03;;;;;;;65.18;61.97;;;11.70;99.90;;;;;;5051461;28;20032;-73
2024/03/26 08:13:29;;;;;;;62.45;59.42;;;11.70;99.90;;;;;;5051640;28;20465;-74
2024/03/26 08:15:55;;;;;;;38.83;36.92;;;11.70;99.90;;;;;;5050830;28;20032;-74
2024/03/26 08:18:22;;;;;;;83.80;79.70;;;11.70;99.90;;;;;;5051910;28;20040;-73
2024/03/26 08:20:49;;;;;;;61.78;58.80;;;11.60;99.90;;;;;;5050943;28;20036;-73
2024/03/26 08:23:15;;;;;;;80.25;76.35;;;11.60;99.90;;;;;;5051497;28;20048;-73
2024/03/26 08:25:41;;;;;;;48.28;45.95;;;11.60;99.90;;;;;;5051316;28;20474;-74
2024/03/26 08:28:07;;;;;;;71.68;68.25;;;11.30;99.90;;;;;;5051604;28;20032;-73
2024/03/26 08:30:34;;;;;;;63.45;60.38;;;11.30;99.90;;;;;;5050582;28;20044;-73
2024/03/26 08:33:00;;;;;;;54.85;52.22;;;11.30;99.90;;;;;;5051695;28;20017;-73
2024/03/26 08:35:27;;;;;;;77.10;73.43;;;11.30;99.90;;;;;;5050724;28;20063;-73
2024/03/26 08:37:53;;;;;;;54.85;52.17;;;11.30;99.90;;;;;;5051454;28;20413;-73
2024/03/26 08:40:19;;;;;;;82.20;78.20;;;11.30;99.90;;;;;;5039747;28;20045;-73
2024/03/26 08:42:46;;;;;;;42.42;40.45;;;11.40;99.90;;;;;;5035888;28;20038;-74
2024/03/26 08:45:12;;;;;;;80.82;76.93;;;11.30;99.90;;;;;;5035337;28;20478;-73
2024/03/26 08:47:38;;;;;;;59.90;57.05;;;11.10;99.90;;;;;;5055209;28;20025;-73
2024/03/26 08:50:05;;;;;;;64.32;61.25;;;11.10;99.90;;;;;;5054664;28;20028;-73
2024/03/26 08:52:32;;;;;;;51.80;49.35;;;11.20;99.90;;;;;;5069663;28;20037;-73
2024/03/26 08:54:58;;;;;;;77.05;73.15;;;11.20;99.90;;;;;;5055005;28;20037;-73
2024/03/26 08:57:24;;;;;;;88.03;83.78;;;11.10;99.90;;;;;;5054371;28;20471;-73
2024/03/26 08:59:50;;;;;;;100.50;95.68;;;11.00;99.90;;;;;;5054809;28;20040;-73
2024/03/26 09:02:16;;;;;;;133.50;126.93;;;10.90;99.90;;;;;;5053761;28;20037;-73
2024/03/26 09:04:42;;;;;;;102.68;97.65;;;10.80;99.90;;;;;;5054415;28;20041;-74
2024/03/26 09:07:09;;;;;;;71.97;68.53;;;10.80;99.90;;;;;;5054318;28;20033;-73
2024/03/26 09:09:35;;;;;;;56.78;54.08;;;10.80;99.90;;;;;;5054557;28;20041;-73
2024/03/26 09:12:01;;;;;;;50.70;48.30;;;10.80;99.90;;;;;;5054134;28;20135;-73
2024/03/26 09:14:27;;;;;;;61.28;58.35;;;10.90;99.90;;;;;;5054660;28;20040;-73
2024/03/26 09:16:53;;;;;;;61.97;58.97;;;10.80;99.90;;;;;;5053632;28;20063;-73
2024/03/26 09:19:19;;;;;;;65.75;62.60;;;10.80;99.90;;;;;;5053945;28;20474;-73
2024/03/26 09:21:45;;;;;;;71.68;68.22;;;10.50;99.90;;;;;;5053840;28;20057;-74
2024/03/26 09:24:11;;;;;;;75.97;72.30;;;10.40;99.90;;;;;;5054295;28;20029;-74
2024/03/26 09:26:38;;;;;;;62.10;59.10;;;10.40;99.90;;;;;;5053751;28;20386;-73
2024/03/26 09:29:05;;;;;;;51.78;49.28;;;10.40;99.90;;;;;;5054426;28;20470;-74
2024/03/26 09:31:32;;;;;;;52.05;49.53;;;10.50;99.90;;;;;;5053216;28;20036;-74
2024/03/26 09:33:58;;;;;;;51.35;48.90;;;10.40;99.90;;;;;;5053885;28;20021;-74
2024/03/26 09:36:24;;;;;;;76.00;72.35;;;10.20;99.90;;;;;;5054137;28;20485;-74
2024/03/26 09:38:50;;;;;;;73.47;69.82;;;10.10;99.90;;;;;;5054089;28;20036;-74
2024/03/26 09:41:18;;;;;;;76.55;72.85;;;10.20;99.90;;;;;;5034236;28;20049;-73
2024/03/26 09:43:44;;;;;;;90.85;86.47;;;10.20;99.90;;;;;;5033052;28;20359;-74
2024/03/26 09:46:12;;;;;;;59.13;56.30;;;10.30;99.90;;;;;;5041461;28;20041;-73
2024/03/26 09:48:38;;;;;;;95.00;90.45;;;10.10;99.90;;;;;;5053882;28;20461;-75
2024/03/26 09:51:04;;;;;;;72.63;69.18;;;10.00;99.90;;;;;;5053620;28;20041;-73
2024/03/26 09:53:31;;;;;;;70.10;66.63;;;10.00;99.90;;;;;;5052758;28;20033;-75
2024/03/26 09:55:57;;;;;;;75.05;71.43;;;10.00;99.90;;;;;;5052154;28;20032;-75
2024/03/26 09:58:23;;;;;;;63.20;60.20;;;10.10;99.90;;;;;;5053891;28;20383;-75
2024/03/26 10:00:49;;;;;;;90.18;85.88;;;10.20;99.90;;;;;;5052704;28;20044;-73
2024/03/26 10:03:20;;;;;;;78.45;74.75;;;10.40;99.90;;;;;;5053183;28;20045;-76
2024/03/26 10:05:47;;;;;;;61.08;58.17;;;10.40;99.90;;;;;;5053256;28;20037;-76
2024/03/26 10:08:13;;;;;;;68.93;65.57;;;10.40;99.90;;;;;;5053632;28;20036;-74
2024/03/26 10:10:42;;;;;;;60.72;57.83;;;10.30;99.90;;;;;;5053106;28;20029;-75
2024/03/26 10:13:11;;;;;;;64.03;60.88;;;10.40;99.90;;;;;;5051786;28;20044;-74
2024/03/26 10:15:38;;;;;;;59.17;56.33;;;10.40;99.90;;;;;;5052528;28;20032;-74
2024/03/26 10:18:08;;;;;;;59.05;56.20;;;10.50;99.90;;;;;;5052819;28;20040;-74
2024/03/26 10:20:34;;;;;;;100.75;95.88;;;10.70;99.90;;;;;;5052820;28;20032;-74
2024/03/26 10:23:00;;;;;;;88.63;84.38;;;10.50;99.90;;;;;;5053205;28;20051;-74
2024/03/26 10:25:27;;;;;;;71.57;68.13;;;10.30;99.90;;;;;;5052854;28;20485;-75
2024/03/26 10:27:55;;;;;;;56.10;53.42;;;10.20;99.90;;;;;;5053109;28;20036;-74
2024/03/26 10:30:21;;;;;;;78.00;74.25;;;10.30;99.90;;;;;;5052496;28;20025;-74
2024/03/26 10:32:48;;;;;;;68.20;64.95;;;10.30;99.90;;;;;;5052755;28;20359;-74
2024/03/26 10:35:14;;;;;;;78.07;74.38;;;10.40;99.90;;;;;;5050626;28;20515;-74
2024/03/26 10:37:40;;;;;;;49.40;47.05;;;10.40;99.90;;;;;;5051458;28;20033;-74
2024/03/26 10:40:12;;;;;;;71.22;67.80;;;10.20;99.90;;;;;;5043045;28;20509;-74
2024/03/26 10:42:47;;;;;;;50.97;48.30;;;10.10;99.90;;;;;;5011690;28;20042;-75
2024/03/26 10:45:13;;;;;;;51.70;49.22;;;10.10;99.90;;;;;;5012238;28;20029;-74
2024/03/26 10:47:40;;;;;;;63.63;60.33;;;10.10;99.90;;;;;;5052506;28;20025;-74
2024/03/26 10:50:06;;;;;;;67.03;63.72;;;9.90;99.90;;;;;;5052793;28;20119;-74
2024/03/26 10:52:33;;;;;;;143.95;136.52;;;10.00;99.90;;;;;;5057912;28;20032;-73
2024/03/26 10:54:59;;;;;;;60.33;57.47;;;10.00;99.90;;;;;;5051598;28;20066;-73
2024/03/26 10:57:25;;;;;;;64.68;61.53;;;10.20;99.90;;;;;;5050783;28;20048;-74
2024/03/26 10:59:51;;;;;;;92.00;87.57;;;10.40;99.90;;;;;;5051526;28;20037;-74
2024/03/26 11:02:17;;;;;;;79.00;75.20;;;10.30;99.90;;;;;;5050177;28;20512;-74
2024/03/26 11:04:44;;;;;;;56.20;53.53;;;10.30;99.90;;;;;;5050695;28;20041;-74
2024/03/26 11:07:10;;;;;;;44.67;42.55;;;10.20;99.90;;;;;;5050992;28;20033;-74
2024/03/26 11:09:37;;;;;;;50.25;47.83;;;10.10;99.90;;;;;;5051021;28;20044;-74
2024/03/26 11:12:03;;;;;;;46.97;44.70;;;10.00;99.90;;;;;;5050864;28;20095;-74
2024/03/26 11:14:29;;;;;;;51.47;49.03;;;9.90;99.90;;;;;;5052553;28;20036;-74
2024/03/26 11:16:58;;;;;;;53.67;50.97;;;9.90;99.90;;;;;;5049878;28;20513;-75
2024/03/26 11:19:25;;;;;;;60.40;57.50;;;9.80;99.90;;;;;;5052435;28;20036;-75
2024/03/26 11:21:54;;;;;;;55.65;53.00;;;9.80;99.90;;;;;;5050377;28;20049;-74
2024/03/26 11:24:21;;;;;;;39.92;38.05;;;9.80;99.90;;;;;;5052396;28;20372;-75
2024/03/26 11:26:47;;;;;;;35.45;33.70;;;9.80;99.90;;;;;;5052188;28;20045;-74
2024/03/26 11:29:14;;;;;;;46.65;44.45;;;9.70;99.90;;;;;;5052084;28;20385;-74
2024/03/26 11:31:41;;;;;;;47.83;45.58;;;9.80;99.90;;;;;;5051364;28;20041;-74
2024/03/26 11:34:07;;;;;;;43.83;41.75;;;9.90;99.90;;;;;;5052179;28;20036;-74
2024/03/26 11:36:37;;;;;;;63.88;60.83;;;10.00;99.90;;;;;;5051754;28;20025;-74
2024/03/26 11:39:03;;;;;;;67.25;64.05;;;10.10;99.90;;;;;;5012357;28;20038;-75
2024/03/26 11:41:29;;;;;;;57.53;54.83;;;10.20;99.90;;;;;;5030002;28;20056;-74
2024/03/26 11:43:57;;;;;;;60.30;57.47;;;10.30;99.90;;;;;;5031007;28;20555;-75
2024/03/26 11:46:23;;;;;;;36.42;34.45;;;10.20;99.90;;;;;;5041192;28;20493;-75
2024/03/26 11:49:00;;;;;;;36.97;35.22;;;10.10;99.90;;;;;;5052258;28;20041;-74
2024/03/26 11:51:27;;;;;;;55.83;53.17;;;9.90;99.90;;;;;;5051769;28;20041;-74
2024/03/26 11:53:54;;;;;;;52.58;50.08;;;9.80;99.90;;;;;;5050556;28;20041;-75
2024/03/26 11:56:20;;;;;;;51.80;49.35;;;9.90;99.90;;;;;;5051678;28;20034;-74
2024/03/26 11:58:47;;;;;;;50.20;47.85;;;10.10;99.90;;;;;;5050476;28;20029;-74
2024/03/26 12:01:15;;;;;;;48.25;45.95;;;10.40;99.90;;;;;;5050885;28;20092;-74
2024/03/26 12:04:00;;;;;;;88.72;84.47;;;10.20;99.90;;;;;;5051870;28;20048;-75
2024/03/26 12:06:28;;;;;;;74.30;70.80;;;10.20;99.90;;;;;;5051389;28;20077;-75
2024/03/26 12:08:56;;;;;;;107.88;102.68;;;10.30;99.90;;;;;;5050720;28;20465;-75